createdAt,value
2018-07-28T00:01:08.002Z,27.33
2018-07-28T00:03:34.030Z,27.30
2018-07-28T00:06:00.009Z,27.31
2018-07-28T00:08:26.013Z,27.34
2018-07-28T00:10:52.004Z,27.36
2018-07-28T00:13:17.987Z,27.30
2018-07-28T00:15:43.967Z,27.23
2018-07-28T00:18:09.935Z,27.26
2018-07-28T00:20:36.007Z,27.25
2018-07-28T00:23:01.991Z,27.29
2018-07-28T00:25:27.973Z,27.34
2018-07-28T00:27:53.948Z,27.35
2018-07-28T00:30:19.924Z,27.27
2018-07-28T00:32:45.892Z,27.27
2018-07-28T00:35:11.871Z,27.31
2018-07-28T00:37:37.870Z,27.29
2018-07-28T00:40:03.840Z,27.18
2018-07-28T00:42:29.808Z,27.19
2018-07-28T00:44:55.777Z,27.20
2018-07-28T00:47:21.731Z,27.34
2018-07-28T00:49:47.712Z,27.21
2018-07-28T00:52:13.676Z,27.24
2018-07-28T00:54:39.715Z,27.30
2018-07-28T00:57:05.705Z,27.31
2018-07-28T00:59:31.667Z,27.20
2018-07-28T01:01:57.634Z,27.16
2018-07-28T01:04:23.600Z,27.16
2018-07-28T01:06:49.542Z,27.25
2018-07-28T01:09:15.518Z,27.33
2018-07-28T01:11:41.492Z,27.23
2018-07-28T01:14:07.480Z,27.30
2018-07-28T01:16:33.462Z,27.22
2018-07-28T01:18:59.441Z,27.20
2018-07-28T01:21:25.404Z,27.31
2018-07-28T01:23:51.380Z,27.45
2018-07-28T01:26:17.375Z,27.36
2018-07-28T01:28:43.409Z,27.18
2018-07-28T01:31:09.392Z,27.24
2018-07-28T01:33:35.352Z,27.35
2018-07-28T01:36:01.380Z,27.55
2018-07-28T01:38:27.351Z,27.50
2018-07-28T01:40:53.340Z,27.30
2018-07-28T01:43:19.327Z,27.22
2018-07-28T01:45:45.367Z,27.49
2018-07-28T01:48:11.332Z,27.46
2018-07-28T01:50:37.324Z,27.26
2018-07-28T01:53:03.441Z,27.26
2018-07-28T01:55:29.406Z,27.25
2018-07-28T01:57:55.365Z,27.24
2018-07-28T02:00:21.380Z,27.18
2018-07-28T02:02:47.341Z,27.15
2018-07-28T02:05:13.307Z,27.21
2018-07-28T02:07:39.269Z,27.24
2018-07-28T02:10:05.261Z,27.13
2018-07-28T02:12:31.308Z,27.06
2018-07-28T02:14:57.273Z,27.08
2018-07-28T02:17:23.248Z,27.15
2018-07-28T02:19:49.202Z,27.14
2018-07-28T02:22:15.163Z,27.11
2018-07-28T02:24:41.124Z,27.20
2018-07-28T02:27:07.089Z,27.15
2018-07-28T02:29:33.071Z,27.13
2018-07-28T02:31:59.052Z,27.20
2018-07-28T02:34:25.032Z,27.18
2018-07-28T02:36:51.105Z,27.15
2018-07-28T02:39:17.054Z,27.14
2018-07-28T02:41:43.032Z,27.33
2018-07-28T02:44:09.009Z,27.31
2018-07-28T02:46:35.096Z,27.16
2018-07-28T02:49:01.055Z,27.14
2018-07-28T02:51:27.040Z,27.15
2018-07-28T02:53:53.000Z,27.14
2018-07-28T02:56:18.973Z,27.47
2018-07-28T02:58:44.940Z,27.78
2018-07-28T03:01:10.933Z,27.74
2018-07-28T03:03:36.917Z,27.55
2018-07-28T03:06:02.912Z,27.57
2018-07-28T03:08:28.855Z,27.50
2018-07-28T03:10:54.815Z,27.55
2018-07-28T03:13:20.791Z,27.39
2018-07-28T03:15:46.772Z,27.40
2018-07-28T03:18:12.758Z,27.40
2018-07-28T03:20:38.731Z,27.28
2018-07-28T03:23:04.715Z,27.24
2018-07-28T03:25:30.682Z,27.23
2018-07-28T03:27:56.679Z,27.41
2018-07-28T03:30:22.660Z,27.34
2018-07-28T03:32:48.623Z,27.29
2018-07-28T03:35:14.581Z,27.19
2018-07-28T03:37:40.553Z,27.17
2018-07-28T03:40:06.506Z,27.15
2018-07-28T03:42:32.461Z,27.22
2018-07-28T03:44:58.417Z,27.19
2018-07-28T03:47:24.384Z,27.12
2018-07-28T03:49:50.351Z,27.44
2018-07-28T03:52:16.372Z,27.25
2018-07-28T03:54:42.341Z,27.19
2018-07-28T03:57:08.322Z,27.17
2018-07-28T03:59:34.294Z,27.15
2018-07-28T04:02:00.265Z,27.12
2018-07-28T04:04:26.239Z,27.10
2018-07-28T04:06:52.213Z,27.10
2018-07-28T04:09:18.176Z,27.14
2018-07-28T04:11:44.145Z,27.14
2018-07-28T04:14:10.108Z,27.09
2018-07-28T04:16:36.132Z,27.06
2018-07-28T04:19:02.075Z,27.06
2018-07-28T04:21:28.172Z,27.21
2018-07-28T04:23:54.142Z,27.07
2018-07-28T04:26:20.140Z,27.03
2018-07-28T04:28:46.118Z,27.04
2018-07-28T04:31:12.119Z,27.08
2018-07-28T04:33:38.090Z,27.04
2018-07-28T04:36:04.077Z,27.01
2018-07-28T04:38:30.050Z,27.03
2018-07-28T04:40:56.030Z,27.04
2018-07-28T04:43:22.026Z,27.07
2018-07-28T04:45:48.098Z,27.10
2018-07-28T04:48:14.092Z,27.09
2018-07-28T04:50:40.065Z,27.08
2018-07-28T04:53:06.052Z,27.05
2018-07-28T04:55:32.001Z,27.08
2018-07-28T04:57:57.978Z,27.03
2018-07-28T05:00:23.958Z,27.06
2018-07-28T05:02:49.947Z,27.06
2018-07-28T05:05:15.912Z,27.09
2018-07-28T05:07:42.064Z,27.09
2018-07-28T05:10:07.860Z,27.06
2018-07-28T05:12:34.761Z,27.07
2018-07-28T05:15:00.731Z,27.07
2018-07-28T05:17:26.712Z,27.10
2018-07-28T05:19:52.667Z,27.10
2018-07-28T05:22:18.710Z,27.08
2018-07-28T05:24:44.696Z,27.12
2018-07-28T05:27:10.661Z,27.12
2018-07-28T05:29:36.668Z,27.13
2018-07-28T05:32:02.675Z,27.11
2018-07-28T05:34:28.636Z,27.13
2018-07-28T05:36:54.585Z,27.23
2018-07-28T05:39:20.570Z,27.28
2018-07-28T05:41:46.528Z,27.12
2018-07-28T05:44:12.524Z,27.06
2018-07-28T05:46:38.487Z,27.10
2018-07-28T05:49:04.463Z,27.09
2018-07-28T05:51:30.432Z,27.06
2018-07-28T05:53:56.412Z,27.11
2018-07-28T05:56:22.374Z,27.08
2018-07-28T05:58:48.355Z,27.11
2018-07-28T06:01:14.378Z,27.16
2018-07-28T06:03:40.348Z,27.09
2018-07-28T06:06:06.333Z,27.08
2018-07-28T06:08:32.394Z,27.03
2018-07-28T06:10:58.486Z,27.03
2018-07-28T06:13:24.541Z,27.04
2018-07-28T06:15:50.545Z,27.07
2018-07-28T06:18:16.582Z,27.09
2018-07-28T06:20:42.605Z,26.99
2018-07-28T06:23:08.638Z,26.99
2018-07-28T06:25:34.605Z,27.03
2018-07-28T06:28:00.583Z,27.03
2018-07-28T06:30:26.571Z,27.06
2018-07-28T06:32:52.535Z,27.16
2018-07-28T06:35:18.499Z,27.17
2018-07-28T06:37:44.471Z,27.33
2018-07-28T06:40:10.439Z,27.40
2018-07-28T06:42:36.405Z,27.34
2018-07-28T06:45:02.394Z,27.41
2018-07-28T06:47:28.446Z,27.39
2018-07-28T06:49:54.430Z,27.28
2018-07-28T06:52:20.436Z,27.27
2018-07-28T06:54:46.409Z,27.21
2018-07-28T06:57:12.456Z,27.23
2018-07-28T06:59:38.444Z,27.19
2018-07-28T07:02:04.413Z,27.19
2018-07-28T07:04:30.381Z,27.21
2018-07-28T07:06:56.353Z,27.19
2018-07-28T07:09:22.322Z,27.16
2018-07-28T07:11:48.388Z,27.18
2018-07-28T07:14:14.416Z,27.18
2018-07-28T07:16:43.962Z,27.20
2018-07-28T07:19:09.982Z,27.18
2018-07-28T07:21:35.996Z,27.19
2018-07-28T07:24:01.999Z,27.13
2018-07-28T07:26:28.036Z,27.15
2018-07-28T07:28:54.028Z,27.14
2018-07-28T07:31:20.033Z,27.16
2018-07-28T07:33:46.086Z,27.14
2018-07-28T07:36:12.078Z,27.14
2018-07-28T07:38:38.081Z,27.19
2018-07-28T07:41:04.207Z,27.20
2018-07-28T07:43:30.221Z,27.15
2018-07-28T07:45:56.233Z,27.17
2018-07-28T07:48:22.255Z,27.18
2018-07-28T07:50:48.297Z,27.18
2018-07-28T07:53:14.405Z,27.19
2018-07-28T07:55:40.383Z,27.16
2018-07-28T07:58:06.358Z,27.16
2018-07-28T08:00:32.413Z,27.20
2018-07-28T08:02:58.392Z,27.18
2018-07-28T08:05:24.343Z,27.14
2018-07-28T08:07:50.345Z,27.21
2018-07-28T08:10:16.376Z,27.15
2018-07-28T08:12:42.372Z,27.15
2018-07-28T08:15:08.327Z,27.13
2018-07-28T08:17:34.346Z,27.13
2018-07-28T08:20:00.323Z,27.16
2018-07-28T08:22:26.294Z,27.20
2018-07-28T08:24:52.320Z,27.16
2018-07-28T08:27:18.309Z,27.16
2018-07-28T08:29:44.285Z,27.16
2018-07-28T08:32:10.293Z,27.16
2018-07-28T08:34:36.272Z,27.16
2018-07-28T08:37:02.272Z,27.17
2018-07-28T08:39:28.279Z,27.20
2018-07-28T08:41:54.273Z,27.17
2018-07-28T08:44:20.269Z,27.21
2018-07-28T08:46:46.261Z,27.22
2018-07-28T08:49:12.502Z,27.18
2018-07-28T08:51:38.407Z,27.19
2018-07-28T08:54:04.453Z,27.16
2018-07-28T08:56:30.458Z,27.20
2018-07-28T08:58:56.420Z,27.22
2018-07-28T09:01:22.442Z,27.22
2018-07-28T09:03:48.435Z,27.23
2018-07-28T09:06:14.434Z,27.22
2018-07-28T09:08:40.384Z,27.24
2018-07-28T09:11:06.388Z,27.27
2018-07-28T09:13:32.421Z,27.31
2018-07-28T09:15:58.407Z,27.53
2018-07-28T09:18:24.382Z,27.44
2018-07-28T09:20:50.383Z,27.53
2018-07-28T09:23:16.381Z,27.47
2018-07-28T09:25:42.335Z,27.45
2018-07-28T09:28:08.317Z,27.35
2018-07-28T09:30:34.346Z,27.38
2018-07-28T09:33:00.305Z,27.39
2018-07-28T09:35:26.264Z,27.35
2018-07-28T09:37:52.270Z,27.47
2018-07-28T09:40:18.238Z,27.41
2018-07-28T09:42:44.279Z,27.55
2018-07-28T09:45:10.407Z,27.42
2018-07-28T09:47:36.365Z,27.31
2018-07-28T09:50:02.335Z,27.24
2018-07-28T09:52:28.308Z,27.18
2018-07-28T09:54:54.297Z,27.26
2018-07-28T09:57:20.293Z,27.21
2018-07-28T09:59:46.268Z,27.25
2018-07-28T10:02:12.235Z,27.31
2018-07-28T10:04:38.213Z,27.26
2018-07-28T10:07:04.197Z,27.38
2018-07-28T10:09:30.222Z,27.31
2018-07-28T10:11:56.261Z,27.42
2018-07-28T10:14:22.228Z,27.39
2018-07-28T10:16:48.200Z,27.40
2018-07-28T10:19:14.261Z,27.32
2018-07-28T10:21:40.275Z,27.36
2018-07-28T10:24:06.272Z,27.31
2018-07-28T10:26:32.281Z,27.54
2018-07-28T10:28:58.250Z,27.41
2018-07-28T10:31:24.236Z,27.35
2018-07-28T10:33:50.219Z,27.38
2018-07-28T10:36:16.270Z,27.35
2018-07-28T10:38:42.163Z,27.36
2018-07-28T10:41:08.161Z,27.37
2018-07-28T10:43:34.136Z,27.45
2018-07-28T10:46:00.108Z,27.40
2018-07-28T10:48:26.087Z,27.32
2018-07-28T10:50:52.056Z,27.36
2018-07-28T10:53:18.279Z,27.38
2018-07-28T10:55:44.252Z,27.35
2018-07-28T10:58:10.221Z,27.37
2018-07-28T11:00:36.188Z,27.36
2018-07-28T11:03:02.209Z,27.29
2018-07-28T11:05:28.164Z,27.48
2018-07-28T11:07:54.132Z,27.32
2018-07-28T11:10:20.119Z,27.31
2018-07-28T11:12:46.088Z,27.35
2018-07-28T11:15:12.052Z,27.29
2018-07-28T11:17:38.016Z,27.39
2018-07-28T11:20:04.009Z,27.46
2018-07-28T11:22:30.008Z,27.45
2018-07-28T11:24:55.959Z,27.42
2018-07-28T11:27:21.938Z,27.45
2018-07-28T11:29:47.932Z,27.48
2018-07-28T11:32:13.903Z,27.47
2018-07-28T11:34:39.954Z,27.46
2018-07-28T11:37:05.971Z,27.48
2018-07-28T11:39:31.942Z,27.38
2018-07-28T11:41:57.928Z,27.38
2018-07-28T11:44:23.920Z,27.33
2018-07-28T11:46:49.887Z,27.36
2018-07-28T11:49:15.891Z,27.49
2018-07-28T11:51:41.872Z,27.37
2018-07-28T11:54:07.875Z,27.27
2018-07-28T11:56:33.848Z,27.43
2018-07-28T11:58:59.836Z,27.38
2018-07-28T12:01:25.812Z,27.34
2018-07-28T12:03:51.796Z,27.35
2018-07-28T12:06:17.774Z,27.39
2018-07-28T12:08:43.892Z,27.42
2018-07-28T12:11:09.865Z,27.43
2018-07-28T12:13:36.407Z,27.41
2018-07-28T12:16:02.368Z,27.47
2018-07-28T12:18:28.339Z,27.52
2018-07-28T12:20:54.328Z,27.54
2018-07-28T12:23:20.300Z,27.49
2018-07-28T12:25:46.453Z,27.58
2018-07-28T12:28:12.434Z,27.52
2018-07-28T12:30:38.411Z,27.58
2018-07-28T12:33:04.395Z,27.54
2018-07-28T12:35:30.371Z,27.50
2018-07-28T12:37:56.363Z,27.46
2018-07-28T12:40:22.336Z,27.50
2018-07-28T12:42:48.298Z,27.60
2018-07-28T12:45:14.304Z,27.57
2018-07-28T12:47:40.282Z,27.73
2018-07-28T12:50:06.264Z,27.67
2018-07-28T12:52:32.245Z,27.62
2018-07-28T12:54:58.215Z,27.72
2018-07-28T12:57:24.202Z,27.75
2018-07-28T12:59:50.234Z,27.70
2018-07-28T13:02:16.214Z,27.69
2018-07-28T13:04:42.228Z,27.70
2018-07-28T13:07:08.194Z,27.57
2018-07-28T13:09:34.166Z,27.60
2018-07-28T13:12:00.151Z,27.54
2018-07-28T13:14:26.130Z,27.52
2018-07-28T13:16:52.133Z,27.51
2018-07-28T13:19:18.135Z,27.45
2018-07-28T13:21:44.126Z,27.50
2018-07-28T13:24:10.106Z,27.49
2018-07-28T13:26:36.093Z,27.51
2018-07-28T13:29:02.058Z,27.61
2018-07-28T13:31:28.082Z,27.52
2018-07-28T13:33:54.090Z,27.54
2018-07-28T13:36:20.082Z,27.62
2018-07-28T13:38:46.187Z,27.55
2018-07-28T13:41:12.177Z,27.74
2018-07-28T13:43:38.180Z,27.71
2018-07-28T13:46:04.174Z,27.68
2018-07-28T13:48:30.188Z,27.73
2018-07-28T13:50:56.179Z,27.62
2018-07-28T13:53:22.192Z,27.54
2018-07-28T13:55:48.131Z,27.71
2018-07-28T13:58:14.103Z,27.87
2018-07-28T14:00:40.067Z,27.89
2018-07-28T14:03:06.955Z,28.00
2018-07-28T14:05:32.938Z,28.05
2018-07-28T14:07:58.930Z,27.98
2018-07-28T14:10:24.922Z,28.19
2018-07-28T14:12:50.885Z,28.05
2018-07-28T14:15:16.949Z,28.18
2018-07-28T14:17:42.912Z,28.06
2018-07-28T14:20:08.891Z,27.90
2018-07-28T14:22:34.870Z,27.84
2018-07-28T14:25:00.889Z,28.09
2018-07-28T14:27:26.843Z,28.06
2018-07-28T14:29:52.776Z,28.04
2018-07-28T14:32:18.919Z,27.95
2018-07-28T14:34:44.955Z,27.85
2018-07-28T14:37:10.974Z,28.05
2018-07-28T14:39:36.962Z,28.17
2018-07-28T14:42:02.958Z,28.05
2018-07-28T14:44:28.964Z,28.18
2018-07-28T14:46:55.005Z,28.05
2018-07-28T14:49:20.992Z,27.98
2018-07-28T14:51:46.967Z,28.07
2018-07-28T14:54:12.959Z,28.16
2018-07-28T14:56:38.961Z,28.14
2018-07-28T14:59:04.939Z,28.10
2018-07-28T15:01:30.909Z,28.13
2018-07-28T15:03:56.900Z,28.15
2018-07-28T15:06:22.874Z,28.10
2018-07-28T15:08:48.836Z,28.08
2018-07-28T15:11:15.120Z,28.06
2018-07-28T15:13:41.159Z,28.00
2018-07-28T15:16:07.181Z,28.00
2018-07-28T15:18:33.128Z,27.87
2018-07-28T15:20:59.152Z,27.99
2018-07-28T15:23:25.120Z,28.04
2018-07-28T15:25:51.181Z,28.07
2018-07-28T15:28:17.137Z,28.00
2018-07-28T15:30:43.112Z,28.08
2018-07-28T15:33:09.093Z,28.09
2018-07-28T15:35:35.090Z,28.03
2018-07-28T15:38:01.145Z,28.12
2018-07-28T15:40:27.128Z,28.02
2018-07-28T15:42:53.085Z,28.04
2018-07-28T15:45:19.044Z,28.03
2018-07-28T15:47:45.008Z,28.02
2018-07-28T15:50:11.047Z,28.02
2018-07-28T15:52:37.018Z,28.10
2018-07-28T15:55:02.980Z,28.05
2018-07-28T15:57:28.930Z,28.02
2018-07-28T15:59:54.887Z,27.95
2018-07-28T16:02:20.846Z,27.92
2018-07-28T16:04:46.818Z,27.89
2018-07-28T16:07:12.801Z,27.83
2018-07-28T16:09:38.771Z,27.86
2018-07-28T16:12:04.736Z,27.82
2018-07-28T16:14:30.699Z,27.86
2018-07-28T16:16:56.669Z,27.98
2018-07-28T16:19:22.738Z,27.94
2018-07-28T16:21:48.765Z,28.00
2018-07-28T16:24:14.751Z,28.08
2018-07-28T16:26:40.713Z,27.69
2018-07-28T16:29:06.668Z,27.69
2018-07-28T16:31:32.638Z,27.61
2018-07-28T16:33:58.576Z,27.73
2018-07-28T16:36:24.528Z,27.68
2018-07-28T16:38:50.564Z,27.65
2018-07-28T16:41:16.560Z,27.78
2018-07-28T16:43:42.568Z,27.67
2018-07-28T16:46:08.608Z,27.55
2018-07-28T16:48:34.589Z,27.66
2018-07-28T16:51:00.565Z,27.63
2018-07-28T16:53:26.524Z,27.54
2018-07-28T16:55:52.483Z,27.57
2018-07-28T16:58:18.511Z,27.60
2018-07-28T17:00:44.467Z,27.67
2018-07-28T17:03:10.446Z,27.67
2018-07-28T17:05:36.436Z,27.59
2018-07-28T17:08:02.420Z,27.60
2018-07-28T17:10:28.392Z,27.59
2018-07-28T17:12:54.368Z,27.60
2018-07-28T17:15:20.446Z,27.65
2018-07-28T17:17:46.419Z,27.63
2018-07-28T17:20:12.378Z,27.63
2018-07-28T17:22:38.416Z,27.66
2018-07-28T17:25:04.332Z,27.57
2018-07-28T17:27:30.285Z,27.64
2018-07-28T17:29:56.254Z,27.52
2018-07-28T17:32:22.286Z,27.58
2018-07-28T17:34:48.215Z,27.53
2018-07-28T17:37:14.195Z,27.47
2018-07-28T17:39:40.172Z,27.67
2018-07-28T17:42:06.142Z,27.56
2018-07-28T17:44:32.132Z,27.53
2018-07-28T17:46:58.092Z,27.54
2018-07-28T17:49:24.081Z,27.52
2018-07-28T17:51:50.045Z,27.47
2018-07-28T17:54:16.059Z,27.54
2018-07-28T17:56:42.033Z,27.62
2018-07-28T17:59:07.996Z,27.64
2018-07-28T18:01:33.975Z,27.57
2018-07-28T18:03:59.911Z,27.53
2018-07-28T18:06:25.887Z,27.52
2018-07-28T18:08:51.863Z,27.54
2018-07-28T18:11:17.834Z,27.48
2018-07-28T18:13:44.116Z,27.43
2018-07-28T18:16:10.086Z,27.40
2018-07-28T18:18:36.057Z,27.42
2018-07-28T18:21:02.031Z,27.38
2018-07-28T18:23:28.017Z,27.35
2018-07-28T18:25:54.043Z,27.36
2018-07-28T18:28:20.007Z,27.41
2018-07-28T18:30:46.032Z,27.38
2018-07-28T18:33:12.005Z,27.38
2018-07-28T18:35:37.995Z,27.36
2018-07-28T18:38:03.952Z,27.39
2018-07-28T18:40:29.912Z,27.33
2018-07-28T18:42:55.885Z,27.36
2018-07-28T18:45:21.861Z,27.41
2018-07-28T18:47:47.880Z,27.38
2018-07-28T18:50:13.836Z,27.32
2018-07-28T18:52:39.809Z,27.34
2018-07-28T18:55:05.914Z,27.34
2018-07-28T18:57:31.908Z,27.42
2018-07-28T18:59:57.879Z,27.32
2018-07-28T19:02:23.888Z,27.44
2018-07-28T19:04:49.923Z,27.61
2018-07-28T19:07:15.821Z,27.58
2018-07-28T19:09:41.783Z,27.63
2018-07-28T19:12:07.776Z,27.49
2018-07-28T19:14:33.734Z,27.46
2018-07-28T19:16:59.706Z,27.47
2018-07-28T19:19:25.666Z,27.52
2018-07-28T19:21:51.655Z,27.49
2018-07-28T19:24:17.626Z,27.47
2018-07-28T19:26:43.604Z,27.49
2018-07-28T19:29:09.578Z,27.36
2018-07-28T19:31:35.558Z,27.33
2018-07-28T19:34:01.529Z,27.35
2018-07-28T19:36:27.521Z,27.36
2018-07-28T19:38:53.511Z,27.31
2018-07-28T19:41:19.495Z,27.34
2018-07-28T19:43:45.452Z,27.34
2018-07-28T19:46:11.460Z,27.35
2018-07-28T19:48:37.470Z,27.34
2018-07-28T19:51:03.459Z,27.35
2018-07-28T19:53:29.450Z,27.31
2018-07-28T19:55:55.419Z,27.27
2018-07-28T19:58:21.393Z,27.31
2018-07-28T20:00:47.347Z,27.31
2018-07-28T20:03:13.323Z,27.29
2018-07-28T20:05:39.289Z,27.28
2018-07-28T20:10:46.914Z,27.26
2018-07-28T20:13:12.884Z,27.28
2018-07-28T20:15:38.857Z,27.25
2018-07-28T20:18:04.876Z,27.24
2018-07-28T20:20:30.866Z,27.25
2018-07-28T20:22:56.864Z,27.25
2018-07-28T20:25:22.848Z,27.23
2018-07-28T20:27:48.820Z,27.22
2018-07-28T20:30:14.812Z,27.20
2018-07-28T20:32:40.816Z,27.20
2018-07-28T20:35:06.807Z,27.23
2018-07-28T20:37:32.828Z,27.19
2018-07-28T20:39:58.814Z,27.21
2018-07-28T20:42:24.867Z,27.15
2018-07-28T20:44:50.874Z,27.17
2018-07-28T20:47:16.840Z,27.17
2018-07-28T20:49:42.828Z,27.16
2018-07-28T20:52:08.825Z,27.09
2018-07-28T20:54:34.777Z,27.06
2018-07-28T20:57:00.762Z,27.11
2018-07-28T20:59:26.783Z,27.23
2018-07-28T21:01:52.718Z,27.13
2018-07-28T21:04:18.691Z,27.11
2018-07-28T21:06:44.642Z,27.06
2018-07-28T21:09:10.630Z,27.06
2018-07-28T21:11:36.603Z,27.05
2018-07-28T21:14:02.580Z,27.11
2018-07-28T21:16:28.647Z,27.13
2018-07-28T21:18:54.569Z,27.18
2018-07-28T21:21:20.721Z,27.20
2018-07-28T21:23:46.688Z,27.14
2018-07-28T21:26:12.652Z,27.09
2018-07-28T21:28:38.652Z,27.07
2018-07-28T21:31:04.630Z,27.11
2018-07-28T21:33:30.678Z,27.08
2018-07-28T21:35:56.656Z,27.23
2018-07-28T21:38:22.605Z,27.18
2018-07-28T21:40:48.567Z,27.06
2018-07-28T21:43:14.565Z,27.09
2018-07-28T21:45:40.524Z,27.13
2018-07-28T21:48:06.522Z,27.26
2018-07-28T21:50:32.492Z,27.21
2018-07-28T21:52:58.461Z,27.25
2018-07-28T21:55:24.438Z,27.28
2018-07-28T21:57:50.464Z,27.31
2018-07-28T22:00:16.424Z,27.13
2018-07-28T22:02:42.390Z,27.23
2018-07-28T22:05:08.441Z,27.23
2018-07-28T22:07:34.489Z,27.23
2018-07-28T22:10:00.495Z,27.15
2018-07-28T22:12:26.476Z,27.19
2018-07-28T22:14:52.463Z,27.40
2018-07-28T22:17:18.444Z,27.30
2018-07-28T22:19:44.430Z,27.04
2018-07-28T22:22:10.391Z,27.43
2018-07-28T22:24:36.343Z,27.53
2018-07-28T22:27:02.401Z,27.45
2018-07-28T22:29:28.389Z,27.40
2018-07-28T22:31:54.361Z,27.25
2018-07-28T22:34:20.356Z,27.24
2018-07-28T22:36:46.467Z,27.42
2018-07-28T22:39:12.509Z,27.28
2018-07-28T22:41:38.498Z,26.90
2018-07-28T22:44:04.519Z,26.90
2018-07-28T22:46:30.493Z,26.89
2018-07-28T22:48:56.461Z,26.98
2018-07-28T22:51:22.416Z,27.00
2018-07-28T22:53:48.404Z,26.99
2018-07-28T22:56:14.666Z,26.98
2018-07-28T22:58:40.647Z,26.99
2018-07-28T23:01:06.629Z,26.94
2018-07-28T23:03:32.599Z,27.03
2018-07-28T23:05:58.584Z,27.05
2018-07-28T23:08:24.571Z,27.06
2018-07-28T23:10:50.559Z,27.03
2018-07-28T23:13:16.542Z,27.03
2018-07-28T23:15:42.511Z,27.01
2018-07-28T23:18:08.478Z,27.02
2018-07-28T23:20:34.432Z,27.00
2018-07-28T23:23:00.411Z,27.00
2018-07-28T23:25:26.383Z,26.97
2018-07-28T23:27:52.406Z,27.02
2018-07-28T23:30:18.323Z,27.00
2018-07-28T23:32:44.316Z,26.95
2018-07-28T23:35:10.265Z,26.97
2018-07-28T23:37:36.247Z,26.94
2018-07-28T23:40:02.243Z,26.94
2018-07-28T23:42:28.213Z,26.98
2018-07-28T23:44:54.200Z,26.98
2018-07-28T23:47:20.177Z,26.96
2018-07-28T23:49:46.240Z,26.95
2018-07-28T23:52:12.226Z,26.93
2018-07-28T23:54:38.260Z,26.95
2018-07-28T23:57:05.266Z,26.98
2018-07-28T23:59:31.267Z,26.92
